Time;durP1;ratioP1;P1;durP2;ratioP2;P2;SDS_P1;SDS_P2;PMS_P1;PMS_P2;Temp;Humidity;BMP_temperature;BMP_pressure;BME280_temperature;BME280_humidity;BME280_pressure;Samples;Min_cycle;Max_cycle;Signal;HPM_P1;HPM_P2
2021/05/22 00:01:32;;;;;;;15.17;2.43;;;;;;;;;;5091861;28;20309;-81
2021/05/22 00:03:59;;;;;;;13.63;1.80;;;;;;;;;;5091364;28;20550;-82
2021/05/22 00:06:26;;;;;;;14.73;2.37;;;;;;;;;;5091100;28;20205;-81
2021/05/22 00:08:58;;;;;;;12.37;2.40;;;;;;;;;;5091426;28;20299;-80
2021/05/22 00:11:25;;;;;;;12.70;3.17;;;;;;;;;;5091254;28;20216;-81
2021/05/22 00:13:52;;;;;;;19.43;3.13;;;;;;;;;;5091516;28;20276;-81
2021/05/22 00:16:19;;;;;;;16.10;2.53;;;;;;;;;;5091919;28;20260;-81
2021/05/22 00:18:46;;;;;;;12.53;2.67;;;;;;;;;;5091802;28;20225;-81
2021/05/22 00:21:18;;;;;;;16.70;2.80;;;;;;;;;;5091018;28;20253;-81
2021/05/22 00:23:45;;;;;;;14.80;3.33;;;;;;;;;;5091626;28;20195;-81
2021/05/22 00:26:12;;;;;;;12.17;2.67;;;;;;;;;;5091438;28;20208;-81
2021/05/22 00:28:42;;;;;;;15.57;2.80;;;;;;;;;;5091740;28;20593;-83
2021/05/22 00:31:08;;;;;;;12.20;2.37;;;;;;;;;;5090999;28;20213;-81
2021/05/22 00:33:38;;;;;;;15.80;2.87;;;;;;;;;;5091290;28;20206;-82
2021/05/22 00:36:05;;;;;;;13.33;2.27;;;;;;;;;;5091610;28;20202;-82
2021/05/22 00:38:32;;;;;;;17.60;3.00;;;;;;;;;;5091229;28;20226;-82
2021/05/22 00:40:59;;;;;;;23.27;3.20;;;;;;;;;;5091782;28;20226;-81
2021/05/22 00:43:26;;;;;;;13.60;2.10;;;;;;;;;;5091615;28;20214;-82
2021/05/22 00:45:54;;;;;;;12.60;2.50;;;;;;;;;;5093362;28;20200;-82
2021/05/22 00:48:21;;;;;;;12.67;2.80;;;;;;;;;;5095025;28;20229;-82
2021/05/22 00:50:51;;;;;;;13.17;2.33;;;;;;;;;;5095213;28;20226;-82
2021/05/22 00:53:31;;;;;;;12.70;2.77;;;;;;;;;;5094363;28;20692;-81
2021/05/22 00:56:05;;;;;;;18.10;2.47;;;;;;;;;;5094763;28;20236;-82
2021/05/22 00:58:33;;;;;;;21.97;2.90;;;;;;;;;;5094812;28;20655;-82
2021/05/22 01:01:00;;;;;;;13.57;2.57;;;;;;;;;;5094761;28;20328;-82
2021/05/22 01:03:29;;;;;;;15.87;2.63;;;;;;;;;;5094407;28;20198;-82
2021/05/22 01:06:05;;;;;;;18.33;3.10;;;;;;;;;;5095257;28;20516;-81
2021/05/22 01:08:32;;;;;;;14.33;2.77;;;;;;;;;;5094549;28;20202;-81
2021/05/22 01:10:59;;;;;;;13.20;2.37;;;;;;;;;;5094097;28;20696;-82
2021/05/22 01:13:27;;;;;;;14.43;2.73;;;;;;;;;;5094431;28;20303;-82
2021/05/22 01:15:55;;;;;;;14.57;2.90;;;;;;;;;;5093967;28;20629;-81
2021/05/22 01:18:23;;;;;;;16.87;2.67;;;;;;;;;;5093897;28;20202;-82
2021/05/22 01:20:53;;;;;;;18.03;2.77;;;;;;;;;;5094536;28;20222;-82
2021/05/22 01:23:23;;;;;;;14.60;2.93;;;;;;;;;;5094549;28;20240;-82
2021/05/22 01:25:52;;;;;;;14.17;2.57;;;;;;;;;;5094301;28;20244;-83
2021/05/22 01:28:19;;;;;;;12.07;3.07;;;;;;;;;;5094266;28;20233;-82
2021/05/22 01:30:47;;;;;;;19.73;3.23;;;;;;;;;;5093652;28;20296;-82
2021/05/22 01:33:13;;;;;;;13.40;2.67;;;;;;;;;;5094692;28;20210;-82
2021/05/22 01:35:41;;;;;;;17.30;2.40;;;;;;;;;;5092488;28;20212;-81
2021/05/22 01:38:08;;;;;;;17.00;2.77;;;;;;;;;;5094169;28;20201;-84
2021/05/22 01:40:35;;;;;;;24.17;3.07;;;;;;;;;;5093197;28;20229;-81
2021/05/22 01:43:09;;;;;;;16.03;2.60;;;;;;;;;;5094404;28;20273;-82
2021/05/22 01:45:37;;;;;;;13.50;2.57;;;;;;;;;;5093569;28;20744;-82
2021/05/22 01:48:05;;;;;;;18.67;2.63;;;;;;;;;;5093223;28;20808;-82
2021/05/22 01:50:33;;;;;;;15.57;2.60;;;;;;;;;;5094132;28;20230;-81
2021/05/22 01:53:01;;;;;;;15.00;2.50;;;;;;;;;;5093872;28;20746;-82
2021/05/22 01:55:28;;;;;;;11.43;2.53;;;;;;;;;;5093544;28;20632;-82
2021/05/22 01:57:55;;;;;;;17.40;2.40;;;;;;;;;;5092090;28;20873;-81
2021/05/22 02:00:23;;;;;;;18.87;2.97;;;;;;;;;;5093212;28;20252;-81
2021/05/22 02:02:55;;;;;;;12.90;2.50;;;;;;;;;;5093248;28;20238;-81
2021/05/22 02:05:22;;;;;;;12.80;1.97;;;;;;;;;;5094046;28;20248;-82
2021/05/22 02:07:49;;;;;;;15.70;2.70;;;;;;;;;;5093350;28;20206;-81
2021/05/22 02:10:16;;;;;;;21.53;2.30;;;;;;;;;;5093641;28;20247;-81
2021/05/22 02:12:43;;;;;;;13.10;2.90;;;;;;;;;;5092905;28;20236;-82
2021/05/22 02:15:13;;;;;;;13.47;2.60;;;;;;;;;;5093429;28;20198;-82
2021/05/22 02:17:41;;;;;;;15.23;2.87;;;;;;;;;;5093637;28;20256;-81
2021/05/22 02:20:09;;;;;;;15.30;2.87;;;;;;;;;;5093431;28;20226;-81
2021/05/22 02:22:39;;;;;;;15.00;2.43;;;;;;;;;;5093489;28;20560;-81
2021/05/22 02:25:07;;;;;;;15.57;2.57;;;;;;;;;;5093177;28;20208;-82
2021/05/22 02:27:35;;;;;;;16.07;2.70;;;;;;;;;;5093198;28;20323;-82
2021/05/22 02:30:03;;;;;;;14.77;2.40;;;;;;;;;;5092887;28;20212;-82
2021/05/22 02:32:29;;;;;;;12.93;2.50;;;;;;;;;;5093597;28;20201;-82
2021/05/22 02:35:11;;;;;;;11.43;2.40;;;;;;;;;;5092566;28;20664;-81
2021/05/22 02:37:41;;;;;;;11.07;2.03;;;;;;;;;;5091821;28;20202;-81
2021/05/22 02:40:10;;;;;;;14.03;2.40;;;;;;;;;;5092227;28;20220;-82
2021/05/22 02:42:38;;;;;;;14.70;2.23;;;;;;;;;;5092430;28;20225;-81
2021/05/22 02:45:06;;;;;;;15.33;2.60;;;;;;;;;;5072568;28;20286;-82
2021/05/22 02:47:33;;;;;;;13.40;2.90;;;;;;;;;;5074828;28;20207;-82
2021/05/22 02:50:02;;;;;;;14.80;2.40;;;;;;;;;;5093053;28;20199;-81
2021/05/22 02:52:30;;;;;;;15.43;2.87;;;;;;;;;;5093056;28;20226;-82
2021/05/22 02:55:01;;;;;;;14.67;2.03;;;;;;;;;;5092885;28;20202;-81
2021/05/22 02:57:30;;;;;;;12.93;2.10;;;;;;;;;;5092930;28;20291;-81
2021/05/22 02:59:57;;;;;;;13.17;2.83;;;;;;;;;;5092189;28;20220;-82
2021/05/22 03:02:24;;;;;;;12.27;2.53;;;;;;;;;;5092694;28;20565;-82
2021/05/22 03:04:51;;;;;;;13.33;2.23;;;;;;;;;;5092164;28;20204;-82
2021/05/22 03:07:18;;;;;;;9.83;1.90;;;;;;;;;;5092398;28;20241;-82
2021/05/22 03:09:47;;;;;;;16.37;2.30;;;;;;;;;;5091741;28;20203;-81
2021/05/22 03:12:19;;;;;;;15.93;2.40;;;;;;;;;;5091424;28;20295;-82
2021/05/22 03:14:47;;;;;;;9.87;2.10;;;;;;;;;;5093060;28;20295;-81
2021/05/22 03:17:20;;;;;;;13.60;2.23;;;;;;;;;;5092539;28;20199;-83
2021/05/22 03:19:47;;;;;;;11.87;1.87;;;;;;;;;;5092344;28;20208;-82
2021/05/22 03:22:19;;;;;;;10.93;2.33;;;;;;;;;;5091982;28;20201;-82
2021/05/22 03:24:48;;;;;;;10.53;2.00;;;;;;;;;;5092281;28;20199;-82
2021/05/22 03:27:15;;;;;;;9.07;1.67;;;;;;;;;;5091558;28;20304;-81
2021/05/22 03:29:46;;;;;;;10.73;1.97;;;;;;;;;;5091554;28;20579;-82
2021/05/22 03:32:13;;;;;;;9.73;1.80;;;;;;;;;;5091872;28;20207;-80
2021/05/22 03:34:39;;;;;;;12.30;2.10;;;;;;;;;;5091813;28;20220;-81
2021/05/22 03:37:09;;;;;;;11.83;2.10;;;;;;;;;;5091300;28;20290;-81
2021/05/22 03:39:35;;;;;;;9.13;1.87;;;;;;;;;;5091811;28;20273;-82
2021/05/22 03:42:02;;;;;;;12.03;2.23;;;;;;;;;;5091109;28;20312;-81
2021/05/22 03:44:29;;;;;;;10.63;2.13;;;;;;;;;;5091932;28;20581;-82
2021/05/22 03:46:56;;;;;;;10.43;1.77;;;;;;;;;;5091313;28;20626;-81
2021/05/22 03:49:23;;;;;;;12.93;1.93;;;;;;;;;;5091588;28;20242;-81
2021/05/22 03:51:50;;;;;;;10.77;2.43;;;;;;;;;;5091316;28;20225;-81
2021/05/22 03:54:17;;;;;;;10.97;2.23;;;;;;;;;;5091725;28;20237;-81
2021/05/22 03:56:43;;;;;;;10.33;2.30;;;;;;;;;;5091171;28;20285;-82
2021/05/22 03:59:10;;;;;;;7.27;1.93;;;;;;;;;;5091733;28;20234;-81
2021/05/22 04:01:41;;;;;;;11.80;2.17;;;;;;;;;;5091425;28;20874;-80
2021/05/22 04:04:08;;;;;;;13.27;2.37;;;;;;;;;;5091790;28;20208;-82
2021/05/22 04:06:36;;;;;;;12.20;2.27;;;;;;;;;;5091872;28;20207;-82
2021/05/22 04:09:03;;;;;;;11.17;2.07;;;;;;;;;;5092046;28;20245;-82
2021/05/22 04:11:30;;;;;;;13.17;2.37;;;;;;;;;;5091531;28;20229;-82
2021/05/22 04:13:58;;;;;;;13.23;2.20;;;;;;;;;;5091724;28;20604;-81
2021/05/22 04:16:25;;;;;;;10.33;2.23;;;;;;;;;;5091514;28;20267;-81
2021/05/22 04:18:52;;;;;;;10.53;2.33;;;;;;;;;;5091823;28;20203;-82
2021/05/22 04:21:20;;;;;;;13.23;2.33;;;;;;;;;;5094823;28;20253;-81
2021/05/22 04:23:46;;;;;;;9.43;2.07;;;;;;;;;;5095319;28;20702;-82
2021/05/22 04:26:13;;;;;;;12.57;2.40;;;;;;;;;;5095402;28;20340;-81
2021/05/22 04:28:40;;;;;;;11.13;2.30;;;;;;;;;;5095563;28;20231;-81
2021/05/22 04:31:07;;;;;;;10.00;1.80;;;;;;;;;;5095898;28;20222;-81
2021/05/22 04:33:33;;;;;;;15.80;2.47;;;;;;;;;;5095470;28;20589;-81
2021/05/22 04:36:00;;;;;;;13.03;2.67;;;;;;;;;;5095336;28;20215;-81
2021/05/22 04:38:30;;;;;;;14.73;1.90;;;;;;;;;;5094897;28;20210;-81
2021/05/22 04:40:57;;;;;;;11.30;2.27;;;;;;;;;;5095167;28;20218;-81
2021/05/22 04:43:26;;;;;;;10.40;2.37;;;;;;;;;;5095510;28;20228;-82
2021/05/22 04:45:53;;;;;;;13.60;2.63;;;;;;;;;;5095458;28;20199;-82
2021/05/22 04:48:20;;;;;;;9.07;2.43;;;;;;;;;;5095094;28;20220;-81
2021/05/22 04:50:47;;;;;;;16.27;2.57;;;;;;;;;;5094507;28;20203;-82
2021/05/22 04:53:14;;;;;;;13.33;2.70;;;;;;;;;;5094765;28;20196;-82
2021/05/22 04:55:44;;;;;;;12.00;2.33;;;;;;;;;;5094473;28;20621;-82
2021/05/22 04:58:11;;;;;;;12.33;2.50;;;;;;;;;;5094795;28;20240;-82
2021/05/22 05:00:37;;;;;;;17.00;2.60;;;;;;;;;;5094682;28;20271;-81
2021/05/22 05:03:05;;;;;;;24.93;2.60;;;;;;;;;;5094682;28;20241;-82
2021/05/22 05:05:32;;;;;;;20.43;2.73;;;;;;;;;;5094740;28;20212;-82
2021/05/22 05:07:59;;;;;;;15.30;2.43;;;;;;;;;;5093967;28;20199;-81
2021/05/22 05:10:25;;;;;;;14.50;2.70;;;;;;;;;;5094765;28;20232;-80
2021/05/22 05:12:54;;;;;;;13.80;2.23;;;;;;;;;;5093994;28;20317;-79
2021/05/22 05:15:21;;;;;;;15.20;3.27;;;;;;;;;;5095183;28;20599;-82
2021/05/22 05:17:48;;;;;;;13.27;2.70;;;;;;;;;;5094584;28;20196;-81
2021/05/22 05:20:16;;;;;;;15.73;3.00;;;;;;;;;;5094922;28;20215;-82
2021/05/22 05:22:43;;;;;;;14.53;2.63;;;;;;;;;;5094312;28;20253;-81
2021/05/22 05:25:10;;;;;;;16.13;2.73;;;;;;;;;;5093898;28;20207;-82
2021/05/22 05:27:37;;;;;;;16.87;3.20;;;;;;;;;;5094132;28;20217;-82
2021/05/22 05:30:05;;;;;;;13.40;2.97;;;;;;;;;;5093571;28;20205;-79
2021/05/22 05:32:35;;;;;;;12.00;2.37;;;;;;;;;;5093518;28;20247;-82
2021/05/22 05:35:02;;;;;;;14.70;2.60;;;;;;;;;;5094494;28;20198;-79
2021/05/22 05:37:30;;;;;;;16.80;2.70;;;;;;;;;;5094044;28;20232;-81
2021/05/22 05:39:56;;;;;;;14.70;2.73;;;;;;;;;;5094062;28;20202;-81
2021/05/22 05:42:23;;;;;;;11.57;2.30;;;;;;;;;;5094399;28;20230;-81
2021/05/22 05:44:54;;;;;;;15.10;3.10;;;;;;;;;;5094426;28;20727;-80
2021/05/22 05:47:21;;;;;;;16.23;2.80;;;;;;;;;;5094073;28;20281;-80
2021/05/22 05:49:48;;;;;;;12.53;2.37;;;;;;;;;;5093564;28;20198;-82
2021/05/22 05:52:15;;;;;;;12.63;2.63;;;;;;;;;;5093438;28;20668;-82
2021/05/22 05:54:41;;;;;;;9.20;2.20;;;;;;;;;;5093788;28;20220;-82
2021/05/22 05:57:08;;;;;;;13.37;2.40;;;;;;;;;;5093938;28;20283;-82
2021/05/22 05:59:35;;;;;;;10.77;2.07;;;;;;;;;;5093491;28;20311;-83
2021/05/22 06:02:01;;;;;;;12.60;2.20;;;;;;;;;;5093282;28;20309;-83
2021/05/22 06:04:31;;;;;;;11.37;2.50;;;;;;;;;;5093172;28;21627;-82
2021/05/22 06:06:58;;;;;;;13.20;2.80;;;;;;;;;;5093280;28;20292;-82
2021/05/22 06:09:27;;;;;;;13.07;2.70;;;;;;;;;;5093271;28;20202;-82
2021/05/22 06:11:53;;;;;;;9.70;1.97;;;;;;;;;;5093957;28;20199;-83
2021/05/22 06:14:27;;;;;;;10.80;2.63;;;;;;;;;;5093261;28;20238;-82
2021/05/22 06:16:54;;;;;;;14.83;2.37;;;;;;;;;;5093536;28;20245;-81
2021/05/22 06:19:21;;;;;;;8.90;2.17;;;;;;;;;;5093562;28;20247;-82
2021/05/22 06:21:48;;;;;;;10.60;2.43;;;;;;;;;;5093320;28;20658;-82
2021/05/22 06:24:15;;;;;;;8.07;2.17;;;;;;;;;;5093152;28;20202;-82
2021/05/22 06:26:42;;;;;;;8.60;2.13;;;;;;;;;;5093070;28;20221;-82
2021/05/22 06:29:17;;;;;;;7.40;2.30;;;;;;;;;;5092983;28;20657;-82
2021/05/22 06:31:45;;;;;;;11.33;2.37;;;;;;;;;;5092988;28;20972;-83
2021/05/22 06:34:12;;;;;;;9.73;2.33;;;;;;;;;;5092992;28;20228;-83
2021/05/22 06:36:40;;;;;;;10.57;1.90;;;;;;;;;;5092747;28;20205;-82
2021/05/22 06:39:08;;;;;;;11.17;2.60;;;;;;;;;;5093074;28;20206;-82
2021/05/22 06:41:35;;;;;;;8.47;2.10;;;;;;;;;;5092652;28;20222;-82
2021/05/22 06:44:04;;;;;;;11.27;2.47;;;;;;;;;;5093179;28;20201;-82
2021/05/22 06:46:49;;;;;;;10.37;2.30;;;;;;;;;;5093109;28;20238;-82
2021/05/22 06:49:17;;;;;;;9.67;2.10;;;;;;;;;;5092523;28;20217;-82
2021/05/22 06:51:44;;;;;;;8.53;2.20;;;;;;;;;;5093923;28;20195;-83
2021/05/22 06:54:12;;;;;;;9.13;2.43;;;;;;;;;;5093410;28;20198;-81
2021/05/22 06:56:38;;;;;;;8.85;2.38;;;;;;;;;;5094006;28;20275;-83
2021/05/22 06:59:05;;;;;;;6.93;2.30;;;;;;;;;;5094274;28;20282;-84
2021/05/22 07:01:32;;;;;;;7.30;2.30;;;;;;;;;;5093744;28;20257;-85
2021/05/22 07:03:59;;;;;;;6.55;1.80;;;;;;;;;;5093039;28;20696;-83
2021/05/22 07:06:25;;;;;;;6.38;1.50;;;;;;;;;;5093170;28;20226;-80
2021/05/22 07:08:55;;;;;;;5.47;1.63;;;;;;;;;;5092753;28;20202;-79
2021/05/22 07:11:25;;;;;;;7.32;1.70;;;;;;;;;;5092234;28;20309;-83
2021/05/22 07:13:52;;;;;;;5.68;1.70;;;;;;;;;;5091939;28;20234;-81
2021/05/22 07:16:19;;;;;;;6.80;1.77;;;;;;;;;;5092291;28;20209;-81
2021/05/22 07:18:46;;;;;;;7.07;1.70;;;;;;;;;;5092561;28;20198;-80
2021/05/22 07:21:14;;;;;;;5.47;1.55;;;;;;;;;;5092731;28;20747;-80
2021/05/22 07:23:40;;;;;;;7.07;1.60;;;;;;;;;;5092024;28;20240;-80
2021/05/22 07:26:07;;;;;;;5.50;1.50;;;;;;;;;;5091642;28;20676;-82
2021/05/22 07:28:35;;;;;;;4.63;1.45;;;;;;;;;;5091606;28;20275;-80
2021/05/22 07:31:01;;;;;;;5.50;1.40;;;;;;;;;;5091914;28;20194;-80
2021/05/22 07:33:28;;;;;;;4.95;1.40;;;;;;;;;;5091806;28;20289;-80
2021/05/22 07:35:55;;;;;;;7.53;1.65;;;;;;;;;;5091109;28;20408;-80
2021/05/22 07:38:23;;;;;;;5.28;1.20;;;;;;;;;;5091683;28;20244;-80
2021/05/22 07:40:49;;;;;;;4.53;1.27;;;;;;;;;;5091709;28;20223;-80
2021/05/22 07:43:17;;;;;;;4.80;1.30;;;;;;;;;;5092236;28;20656;-82
2021/05/22 07:45:45;;;;;;;5.55;1.17;;;;;;;;;;5091556;28;20850;-78
2021/05/22 07:48:12;;;;;;;5.65;1.10;;;;;;;;;;5091539;28;20248;-79
2021/05/22 07:50:38;;;;;;;3.42;1.02;;;;;;;;;;5091193;28;20222;-78
2021/05/22 07:53:05;;;;;;;4.50;1.08;;;;;;;;;;5091714;28;20229;-79
2021/05/22 07:55:32;;;;;;;5.00;1.23;;;;;;;;;;5092741;28;20202;-78
2021/05/22 07:57:59;;;;;;;3.10;0.90;;;;;;;;;;5095683;28;20305;-78
2021/05/22 08:00:25;;;;;;;5.47;1.30;;;;;;;;;;5095412;28;20273;-78
2021/05/22 08:02:53;;;;;;;3.80;0.90;;;;;;;;;;5094708;28;20241;-78
2021/05/22 08:05:19;;;;;;;4.20;1.10;;;;;;;;;;5095670;28;20286;-77
2021/05/22 08:07:46;;;;;;;2.93;0.80;;;;;;;;;;5095447;28;20198;-77
2021/05/22 08:10:16;;;;;;;4.17;0.87;;;;;;;;;;5095168;28;20324;-77
2021/05/22 08:12:43;;;;;;;4.43;0.97;;;;;;;;;;5094934;28;20230;-78
2021/05/22 08:15:10;;;;;;;2.87;0.70;;;;;;;;;;5095207;28;20573;-80
2021/05/22 08:17:37;;;;;;;5.07;0.80;;;;;;;;;;5095628;28;20281;-79
2021/05/22 08:20:05;;;;;;;2.03;0.65;;;;;;;;;;5094777;28;20195;-80
2021/05/22 08:22:33;;;;;;;3.53;0.80;;;;;;;;;;5094317;28;20245;-81
2021/05/22 08:25:00;;;;;;;2.60;0.65;;;;;;;;;;5094574;28;20234;-81
2021/05/22 08:27:27;;;;;;;3.33;0.70;;;;;;;;;;5095024;28;20306;-81
2021/05/22 08:29:54;;;;;;;6.05;0.75;;;;;;;;;;5095176;28;20191;-82
2021/05/22 08:32:20;;;;;;;2.50;0.57;;;;;;;;;;5094456;28;20684;-82
2021/05/22 08:34:47;;;;;;;2.42;0.60;;;;;;;;;;5095143;28;20205;-81
2021/05/22 08:37:19;;;;;;;1.85;0.68;;;;;;;;;;5094732;28;20646;-82
2021/05/22 08:39:45;;;;;;;1.52;0.65;;;;;;;;;;5094975;28;20202;-81
2021/05/22 08:42:13;;;;;;;1.98;0.60;;;;;;;;;;5094730;28;20261;-82
2021/05/22 08:44:41;;;;;;;1.35;0.57;;;;;;;;;;5094302;28;20194;-81
2021/05/22 08:47:08;;;;;;;2.47;0.63;;;;;;;;;;5094501;28;20206;-81
2021/05/22 08:49:41;;;;;;;4.75;0.80;;;;;;;;;;5094840;28;20248;-81
2021/05/22 08:52:09;;;;;;;2.10;0.80;;;;;;;;;;5095399;28;20195;-82
2021/05/22 08:54:37;;;;;;;3.40;0.77;;;;;;;;;;5095192;28;20205;-81
2021/05/22 08:57:04;;;;;;;2.45;0.65;;;;;;;;;;5095000;28;20225;-82
2021/05/22 08:59:30;;;;;;;2.00;0.77;;;;;;;;;;5094562;28;20662;-82
2021/05/22 09:01:57;;;;;;;2.70;0.73;;;;;;;;;;5094746;28;20709;-82
2021/05/22 09:04:24;;;;;;;1.77;0.63;;;;;;;;;;5094748;28;20198;-82
2021/05/22 09:07:01;;;;;;;2.60;0.50;;;;;;;;;;5094774;28;20677;-82
2021/05/22 09:09:42;;;;;;;5.88;1.00;;;;;;;;;;5094936;28;20231;-82
2021/05/22 09:12:11;;;;;;;2.58;0.80;;;;;;;;;;5094189;28;20194;-83
2021/05/22 09:14:45;;;;;;;3.60;0.90;;;;;;;;;;5094050;28;20217;-81
2021/05/22 09:17:13;;;;;;;3.38;0.80;;;;;;;;;;5094141;28;20662;-82
2021/05/22 09:19:39;;;;;;;1.92;0.60;;;;;;;;;;5094396;28;20285;-82
2021/05/22 09:22:20;;;;;;;2.55;0.80;;;;;;;;;;5094356;28;20254;-82
2021/05/22 09:24:58;;;;;;;3.35;1.08;;;;;;;;;;5094057;28;20208;-82
2021/05/22 09:27:25;;;;;;;4.80;0.70;;;;;;;;;;5092777;28;20697;-81
2021/05/22 09:29:51;;;;;;;4.00;0.98;;;;;;;;;;5092913;28;20194;-81
2021/05/22 09:32:18;;;;;;;4.63;0.73;;;;;;;;;;5093833;28;20690;-82
2021/05/22 09:34:45;;;;;;;2.78;0.80;;;;;;;;;;5093920;28;20198;-81
2021/05/22 09:37:12;;;;;;;5.22;1.48;;;;;;;;;;5093530;28;20288;-81
2021/05/22 09:39:45;;;;;;;4.07;1.05;;;;;;;;;;5094100;28;20194;-82
2021/05/22 09:42:13;;;;;;;2.78;0.88;;;;;;;;;;5093926;28;20226;-81
2021/05/22 09:44:40;;;;;;;1.35;0.68;;;;;;;;;;5093673;28;20205;-81
2021/05/22 09:47:07;;;;;;;2.15;0.82;;;;;;;;;;5093616;28;20206;-80
2021/05/22 09:49:35;;;;;;;2.45;0.82;;;;;;;;;;5093796;28;20248;-81
2021/05/22 09:52:03;;;;;;;2.05;0.68;;;;;;;;;;5094054;28;20206;-82
2021/05/22 09:54:43;;;;;;;2.70;0.88;;;;;;;;;;5094106;28;20310;-82
2021/05/22 09:57:10;;;;;;;3.25;0.85;;;;;;;;;;5093952;28;20639;-81
2021/05/22 09:59:38;;;;;;;4.00;0.80;;;;;;;;;;5093617;28;20240;-81
2021/05/22 10:02:05;;;;;;;2.55;0.70;;;;;;;;;;5093049;28;20254;-80
2021/05/22 10:04:32;;;;;;;3.25;0.98;;;;;;;;;;5092754;28;20198;-81
2021/05/22 10:06:58;;;;;;;1.80;0.70;;;;;;;;;;5092284;28;20281;-81
2021/05/22 10:09:27;;;;;;;1.08;0.40;;;;;;;;;;5093748;28;20610;-82
2021/05/22 10:12:00;;;;;;;1.92;0.60;;;;;;;;;;5092991;28;20523;-81
2021/05/22 10:14:27;;;;;;;2.70;0.80;;;;;;;;;;5092688;28;20896;-81
2021/05/22 10:16:55;;;;;;;1.30;0.40;;;;;;;;;;5092659;28;20191;-81
2021/05/22 10:19:22;;;;;;;3.05;0.80;;;;;;;;;;5093081;28;20300;-82
2021/05/22 10:21:49;;;;;;;3.80;0.80;;;;;;;;;;5093375;28;20257;-80
2021/05/22 10:24:16;;;;;;;1.77;0.70;;;;;;;;;;5093671;28;20627;-82
2021/05/22 10:26:43;;;;;;;2.42;0.70;;;;;;;;;;5093036;28;20254;-81
2021/05/22 10:29:10;;;;;;;1.88;0.60;;;;;;;;;;5091995;28;20563;-82
2021/05/22 10:31:40;;;;;;;2.05;0.60;;;;;;;;;;5092932;28;20281;-81
2021/05/22 10:34:12;;;;;;;3.15;0.73;;;;;;;;;;5073120;28;20215;-81
2021/05/22 10:36:46;;;;;;;2.72;0.77;;;;;;;;;;5072735;28;20646;-81
2021/05/22 10:39:32;;;;;;;3.15;0.82;;;;;;;;;;5087286;28;20195;-81
2021/05/22 10:41:58;;;;;;;3.10;0.80;;;;;;;;;;5092741;28;20226;-81
2021/05/22 10:44:29;;;;;;;2.00;0.80;;;;;;;;;;5092698;28;20558;-81
2021/05/22 10:47:09;;;;;;;1.35;0.47;;;;;;;;;;5092576;28;20635;-82
2021/05/22 10:49:49;;;;;;;2.75;0.55;;;;;;;;;;5092786;28;20282;-81
2021/05/22 10:52:17;;;;;;;1.92;0.50;;;;;;;;;;5092885;28;20232;-81
2021/05/22 10:55:00;;;;;;;1.65;0.50;;;;;;;;;;5093103;28;20566;-81
2021/05/22 10:57:27;;;;;;;2.25;0.40;;;;;;;;;;5092482;28;20233;-81
2021/05/22 11:00:18;;;;;;;1.30;0.30;;;;;;;;;;5093986;28;20248;-82
2021/05/22 11:02:46;;;;;;;1.83;0.38;;;;;;;;;;5094246;28;20234;-81
2021/05/22 11:05:32;;;;;;;2.13;0.60;;;;;;;;;;5093203;28;20198;-82
2021/05/22 11:08:13;;;;;;;1.50;0.52;;;;;;;;;;5093334;28;20220;-81
2021/05/22 11:10:42;;;;;;;3.05;0.57;;;;;;;;;;5092608;28;20202;-82
2021/05/22 11:13:10;;;;;;;1.92;0.28;;;;;;;;;;5093665;28;20329;-81
2021/05/22 11:15:39;;;;;;;1.60;0.50;;;;;;;;;;5093600;28;20217;-80
2021/05/22 11:18:06;;;;;;;2.10;0.50;;;;;;;;;;5093700;28;20205;-80
2021/05/22 11:20:33;;;;;;;1.83;0.50;;;;;;;;;;5093652;28;20248;-80
2021/05/22 11:23:01;;;;;;;2.47;0.50;;;;;;;;;;5093597;28;20242;-80
2021/05/22 11:25:44;;;;;;;2.37;0.40;;;;;;;;;;5092070;28;20209;-80
2021/05/22 11:28:17;;;;;;;2.50;0.90;;;;;;;;;;5093048;28;20214;-80
2021/05/22 11:30:44;;;;;;;2.83;0.93;;;;;;;;;;5092860;28;20292;-80
2021/05/22 11:33:17;;;;;;;2.03;0.57;;;;;;;;;;5092303;28;20316;-80
2021/05/22 11:35:46;;;;;;;1.87;0.80;;;;;;;;;;5093869;28;20763;-80
2021/05/22 11:38:31;;;;;;;2.50;0.60;;;;;;;;;;5092906;28;20202;-80
2021/05/22 11:40:59;;;;;;;3.47;0.70;;;;;;;;;;5092759;28;20214;-80
2021/05/22 11:43:30;;;;;;;2.90;0.83;;;;;;;;;;5092678;28;20277;-80
2021/05/22 11:45:58;;;;;;;2.57;0.87;;;;;;;;;;5092511;28;20207;-81
2021/05/22 11:48:25;;;;;;;4.32;0.77;;;;;;;;;;5092808;28;20572;-81
2021/05/22 11:50:53;;;;;;;3.55;0.90;;;;;;;;;;5093167;28;20232;-81
2021/05/22 11:53:19;;;;;;;3.05;1.10;;;;;;;;;;5092766;28;20293;-80
2021/05/22 11:55:54;;;;;;;1.98;0.65;;;;;;;;;;5093627;28;20227;-80
2021/05/22 11:58:21;;;;;;;3.22;0.90;;;;;;;;;;5092507;28;20225;-80
2021/05/22 12:00:49;;;;;;;3.70;0.80;;;;;;;;;;5092867;28;20560;-80
2021/05/22 12:03:22;;;;;;;2.55;0.70;;;;;;;;;;5092319;28;20211;-80
2021/05/22 12:05:49;;;;;;;2.28;0.70;;;;;;;;;;5092518;28;20286;-80
2021/05/22 12:08:16;;;;;;;5.25;1.00;;;;;;;;;;5092016;28;20332;-81
2021/05/22 12:10:43;;;;;;;2.90;0.93;;;;;;;;;;5092179;28;20202;-80
2021/05/22 12:13:10;;;;;;;5.13;1.05;;;;;;;;;;5091844;28;20800;-80
2021/05/22 12:15:38;;;;;;;3.97;1.20;;;;;;;;;;5092316;28;20202;-80
2021/05/22 12:18:07;;;;;;;2.17;1.00;;;;;;;;;;5092860;28;20222;-81
2021/05/22 12:20:44;;;;;;;4.80;1.15;;;;;;;;;;5092444;28;20579;-80
2021/05/22 12:23:22;;;;;;;5.13;1.33;;;;;;;;;;5092402;28;20198;-80
2021/05/22 12:25:49;;;;;;;6.37;1.23;;;;;;;;;;5092036;28;20305;-79
2021/05/22 12:28:16;;;;;;;3.77;0.90;;;;;;;;;;5091859;28;20725;-80
2021/05/22 12:30:43;;;;;;;4.30;1.08;;;;;;;;;;5092215;28;20285;-80
2021/05/22 12:33:11;;;;;;;3.92;1.08;;;;;;;;;;5092321;28;20226;-81
2021/05/22 12:35:38;;;;;;;7.00;1.25;;;;;;;;;;5091721;28;20274;-81
2021/05/22 12:38:04;;;;;;;1.90;0.80;;;;;;;;;;5091562;28;20203;-80
2021/05/22 12:40:44;;;;;;;2.40;0.90;;;;;;;;;;5091371;28;20244;-81
2021/05/22 12:43:11;;;;;;;3.17;0.98;;;;;;;;;;5095510;28;20292;-81
2021/05/22 12:45:42;;;;;;;4.40;1.17;;;;;;;;;;5095228;28;20198;-81
2021/05/22 12:48:22;;;;;;;6.53;1.10;;;;;;;;;;5095062;28;20206;-80
2021/05/22 12:50:49;;;;;;;9.85;1.30;;;;;;;;;;5094874;28;20293;-80
2021/05/22 12:53:28;;;;;;;5.43;0.90;;;;;;;;;;5094839;28;20340;-81
2021/05/22 12:56:02;;;;;;;8.10;1.70;;;;;;;;;;5094801;28;20674;-80
2021/05/22 12:58:29;;;;;;;6.53;1.30;;;;;;;;;;5095181;28;20230;-79
2021/05/22 13:00:56;;;;;;;8.37;1.40;;;;;;;;;;5095027;28;20581;-80
2021/05/22 13:03:35;;;;;;;6.10;1.20;;;;;;;;;;5094801;28;20202;-80
2021/05/22 13:06:02;;;;;;;5.70;1.07;;;;;;;;;;5094338;28;20207;-80
2021/05/22 13:08:29;;;;;;;5.87;1.17;;;;;;;;;;5094498;28;20288;-80
2021/05/22 13:11:06;;;;;;;5.03;1.10;;;;;;;;;;5094781;28;20229;-80
2021/05/22 13:13:33;;;;;;;4.40;0.80;;;;;;;;;;5092204;28;20735;-79
2021/05/22 13:16:05;;;;;;;2.53;0.80;;;;;;;;;;5094298;28;20230;-80
2021/05/22 13:18:32;;;;;;;4.00;1.13;;;;;;;;;;5094656;28;20281;-80
2021/05/22 13:21:01;;;;;;;4.67;1.00;;;;;;;;;;5093569;28;20697;-80
2021/05/22 13:23:33;;;;;;;5.07;1.07;;;;;;;;;;5094274;28;20198;-80
2021/05/22 13:26:00;;;;;;;3.03;0.70;;;;;;;;;;5094741;28;20332;-81
2021/05/22 13:28:27;;;;;;;3.40;1.00;;;;;;;;;;5094209;28;20298;-81
2021/05/22 13:31:02;;;;;;;3.50;1.00;;;;;;;;;;5093980;28;20201;-82
2021/05/22 13:33:34;;;;;;;2.35;0.70;;;;;;;;;;5094212;28;20198;-81
2021/05/22 13:36:02;;;;;;;1.83;0.45;;;;;;;;;;5093863;28;20285;-81
2021/05/22 13:38:29;;;;;;;1.60;0.60;;;;;;;;;;5093900;28;20260;-81
2021/05/22 13:40:56;;;;;;;2.13;0.80;;;;;;;;;;5093759;28;20745;-80
2021/05/22 13:43:22;;;;;;;3.17;0.82;;;;;;;;;;5094236;28;20240;-81
2021/05/22 13:45:49;;;;;;;3.80;0.55;;;;;;;;;;5094273;28;20198;-81
2021/05/22 13:48:16;;;;;;;2.35;0.70;;;;;;;;;;5102182;28;20213;-81
2021/05/22 13:50:43;;;;;;;3.63;0.70;;;;;;;;;;5113919;28;20698;-81
2021/05/22 13:53:11;;;;;;;3.65;0.65;;;;;;;;;;5113459;28;20238;-81
2021/05/22 13:55:37;;;;;;;1.70;0.57;;;;;;;;;;5107141;28;20226;-81
2021/05/22 13:58:06;;;;;;;3.72;0.85;;;;;;;;;;5094038;28;20252;-81
2021/05/22 14:00:33;;;;;;;1.92;0.70;;;;;;;;;;5093585;28;20665;-81
2021/05/22 14:02:59;;;;;;;3.35;0.60;;;;;;;;;;5093284;28;20316;-81
2021/05/22 14:05:26;;;;;;;2.55;0.55;;;;;;;;;;5093536;28;20190;-81
2021/05/22 14:07:53;;;;;;;1.35;0.57;;;;;;;;;;5093805;28;20248;-81
2021/05/22 14:10:21;;;;;;;2.90;0.60;;;;;;;;;;5093310;28;20271;-81
2021/05/22 14:12:47;;;;;;;4.73;0.97;;;;;;;;;;5093031;28;21002;-81
2021/05/22 14:15:15;;;;;;;2.03;0.73;;;;;;;;;;5093526;28;20191;-81
2021/05/22 14:17:41;;;;;;;1.13;0.60;;;;;;;;;;5093553;28;20199;-81
2021/05/22 14:20:09;;;;;;;3.47;0.70;;;;;;;;;;5093336;28;20198;-81
2021/05/22 14:22:36;;;;;;;4.97;0.97;;;;;;;;;;5093259;28;20226;-79
2021/05/22 14:25:02;;;;;;;4.67;0.80;;;;;;;;;;5093156;28;20737;-80
2021/05/22 14:27:30;;;;;;;4.67;0.80;;;;;;;;;;5093212;28;20318;-80
2021/05/22 14:29:57;;;;;;;4.80;1.10;;;;;;;;;;5092969;28;20226;-80
2021/05/22 14:32:23;;;;;;;3.23;0.90;;;;;;;;;;5093337;28;20570;-80
2021/05/22 14:34:50;;;;;;;6.03;1.10;;;;;;;;;;5092588;28;20268;-79
2021/05/22 14:37:17;;;;;;;4.30;1.03;;;;;;;;;;5092764;28;20831;-80
2021/05/22 14:39:43;;;;;;;3.93;0.80;;;;;;;;;;5093675;28;20202;-80
2021/05/22 14:42:10;;;;;;;3.93;0.83;;;;;;;;;;5092932;28;20254;-80
2021/05/22 14:44:38;;;;;;;5.33;1.03;;;;;;;;;;5094065;28;20618;-80
2021/05/22 14:47:05;;;;;;;5.60;1.10;;;;;;;;;;5094336;28;20623;-80